sensor_id;sensor_type;location;lat;lon;timestamp;temperature;humidity
10702;DHT22;5402;50.004;8.246;2023-02-03T00:00:04;7.50;99.90
10702;DHT22;5402;50.004;8.246;2023-02-03T00:02:32;7.50;99.90
10702;DHT22;5402;50.004;8.246;2023-02-03T00:04:59;7.60;99.90
10702;DHT22;5402;50.004;8.246;2023-02-03T00:07:26;7.70;99.90
10702;DHT22;5402;50.004;8.246;2023-02-03T00:09:54;7.70;99.90
10702;DHT22;5402;50.004;8.246;2023-02-03T00:12:21;7.80;99.90
10702;DHT22;5402;50.004;8.246;2023-02-03T00:14:48;7.80;99.90
10702;DHT22;5402;50.004;8.246;2023-02-03T00:17:15;7.80;99.90
10702;DHT22;5402;50.004;8.246;2023-02-03T00:19:43;7.70;99.90
10702;DHT22;5402;50.004;8.246;2023-02-03T00:22:10;7.70;99.90
10702;DHT22;5402;50.004;8.246;2023-02-03T00:24:38;7.70;99.90
10702;DHT22;5402;50.004;8.246;2023-02-03T00:27:05;7.70;99.90
10702;DHT22;5402;50.004;8.246;2023-02-03T00:29:32;7.70;99.90
10702;DHT22;5402;50.004;8.246;2023-02-03T00:31:59;7.80;99.90
10702;DHT22;5402;50.004;8.246;2023-02-03T00:34:27;7.70;99.90
10702;DHT22;5402;50.004;8.246;2023-02-03T00:36:56;7.70;99.90
10702;DHT22;5402;50.004;8.246;2023-02-03T00:39:23;7.70;99.90
10702;DHT22;5402;50.004;8.246;2023-02-03T00:41:50;7.60;99.90
10702;DHT22;5402;50.004;8.246;2023-02-03T00:44:17;7.60;99.90
10702;DHT22;5402;50.004;8.246;2023-02-03T00:46:44;7.50;99.90
10702;DHT22;5402;50.004;8.246;2023-02-03T00:49:10;7.50;99.90
10702;DHT22;5402;50.004;8.246;2023-02-03T00:51:37;7.40;99.90
10702;DHT22;5402;50.004;8.246;2023-02-03T00:54:05;7.40;99.90
10702;DHT22;5402;50.004;8.246;2023-02-03T00:56:32;7.30;99.90
10702;DHT22;5402;50.004;8.246;2023-02-03T00:58:59;7.30;99.90
10702;DHT22;5402;50.004;8.246;2023-02-03T01:01:26;7.30;99.90
10702;DHT22;5402;50.004;8.246;2023-02-03T01:03:53;7.30;99.90
10702;DHT22;5402;50.004;8.246;2023-02-03T01:06:21;7.30;99.90
10702;DHT22;5402;50.004;8.246;2023-02-03T01:08:48;7.40;99.90
10702;DHT22;5402;50.004;8.246;2023-02-03T01:11:19;7.40;99.90
10702;DHT22;5402;50.004;8.246;2023-02-03T01:13:46;7.40;99.90
10702;DHT22;5402;50.004;8.246;2023-02-03T01:16:15;7.40;99.90
10702;DHT22;5402;50.004;8.246;2023-02-03T01:18:42;7.40;99.90
10702;DHT22;5402;50.004;8.246;2023-02-03T01:21:13;7.40;99.90
10702;DHT22;5402;50.004;8.246;2023-02-03T01:23:41;7.50;99.90
10702;DHT22;5402;50.004;8.246;2023-02-03T01:26:10;7.50;99.90
10702;DHT22;5402;50.004;8.246;2023-02-03T01:28:38;7.40;99.90
10702;DHT22;5402;50.004;8.246;2023-02-03T01:31:10;7.50;99.90
10702;DHT22;5402;50.004;8.246;2023-02-03T01:33:37;7.50;99.90
10702;DHT22;5402;50.004;8.246;2023-02-03T01:36:06;7.50;99.90
10702;DHT22;5402;50.004;8.246;2023-02-03T01:38:33;7.50;99.90
10702;DHT22;5402;50.004;8.246;2023-02-03T01:41:00;7.60;99.90
10702;DHT22;5402;50.004;8.246;2023-02-03T01:43:31;7.60;99.90
10702;DHT22;5402;50.004;8.246;2023-02-03T01:46:15;7.60;99.90
10702;DHT22;5402;50.004;8.246;2023-02-03T01:48:43;7.60;99.90
10702;DHT22;5402;50.004;8.246;2023-02-03T01:51:10;7.60;99.90
10702;DHT22;5402;50.004;8.246;2023-02-03T01:53:37;7.70;99.90
10702;DHT22;5402;50.004;8.246;2023-02-03T01:56:05;7.60;99.90
10702;DHT22;5402;50.004;8.246;2023-02-03T01:58:36;7.60;99.90
10702;DHT22;5402;50.004;8.246;2023-02-03T02:01:06;7.60;99.90
10702;DHT22;5402;50.004;8.246;2023-02-03T02:03:36;7.70;99.90
10702;DHT22;5402;50.004;8.246;2023-02-03T02:06:05;7.70;99.90
10702;DHT22;5402;50.004;8.246;2023-02-03T02:08:33;7.70;99.90
10702;DHT22;5402;50.004;8.246;2023-02-03T02:11:00;7.70;99.90
10702;DHT22;5402;50.004;8.246;2023-02-03T02:13:29;7.70;99.90
10702;DHT22;5402;50.004;8.246;2023-02-03T02:16:01;7.70;99.90
10702;DHT22;5402;50.004;8.246;2023-02-03T02:21:43;7.80;99.90
10702;DHT22;5402;50.004;8.246;2023-02-03T02:24:41;7.70;99.90
10702;DHT22;5402;50.004;8.246;2023-02-03T02:27:25;7.70;99.90
10702;DHT22;5402;50.004;8.246;2023-02-03T02:30:25;7.70;99.90
10702;DHT22;5402;50.004;8.246;2023-02-03T02:33:01;7.70;99.90
10702;DHT22;5402;50.004;8.246;2023-02-03T02:35:43;7.70;99.90
10702;DHT22;5402;50.004;8.246;2023-02-03T02:38:19;7.70;99.90
10702;DHT22;5402;50.004;8.246;2023-02-03T02:40:52;7.70;99.90
10702;DHT22;5402;50.004;8.246;2023-02-03T02:43:24;7.70;99.90
10702;DHT22;5402;50.004;8.246;2023-02-03T02:45:55;7.70;99.90
10702;DHT22;5402;50.004;8.246;2023-02-03T02:48:28;7.70;99.90
10702;DHT22;5402;50.004;8.246;2023-02-03T02:50:59;7.70;99.90
10702;DHT22;5402;50.004;8.246;2023-02-03T02:53:31;7.70;99.90
10702;DHT22;5402;50.004;8.246;2023-02-03T02:55:59;7.70;99.90
10702;DHT22;5402;50.004;8.246;2023-02-03T02:58:29;7.70;99.90
10702;DHT22;5402;50.004;8.246;2023-02-03T03:00:57;7.60;99.90
10702;DHT22;5402;50.004;8.246;2023-02-03T03:03:25;7.60;99.90
10702;DHT22;5402;50.004;8.246;2023-02-03T03:05:54;7.60;99.90
10702;DHT22;5402;50.004;8.246;2023-02-03T03:08:24;7.60;99.90
10702;DHT22;5402;50.004;8.246;2023-02-03T03:10:54;7.60;99.90
10702;DHT22;5402;50.004;8.246;2023-02-03T03:13:26;7.60;99.90
10702;DHT22;5402;50.004;8.246;2023-02-03T03:15:54;7.60;99.90
10702;DHT22;5402;50.004;8.246;2023-02-03T03:18:26;7.60;99.90
10702;DHT22;5402;50.004;8.246;2023-02-03T03:20:55;7.60;99.90
10702;DHT22;5402;50.004;8.246;2023-02-03T03:23:25;7.60;99.90
10702;DHT22;5402;50.004;8.246;2023-02-03T03:25:59;7.60;99.90
10702;DHT22;5402;50.004;8.246;2023-02-03T03:28:34;7.60;99.90
10702;DHT22;5402;50.004;8.246;2023-02-03T03:31:03;7.70;99.90
10702;DHT22;5402;50.004;8.246;2023-02-03T03:33:31;7.70;99.90
10702;DHT22;5402;50.004;8.246;2023-02-03T03:36:02;8.40;99.90
10702;DHT22;5402;50.004;8.246;2023-02-03T03:38:37;7.70;99.90
10702;DHT22;5402;50.004;8.246;2023-02-03T03:41:09;7.70;99.90
10702;DHT22;5402;50.004;8.246;2023-02-03T03:43:42;7.70;99.90
10702;DHT22;5402;50.004;8.246;2023-02-03T03:46:13;7.70;99.90
10702;DHT22;5402;50.004;8.246;2023-02-03T03:48:48;7.70;99.90
10702;DHT22;5402;50.004;8.246;2023-02-03T03:51:20;7.70;99.90
10702;DHT22;5402;50.004;8.246;2023-02-03T03:53:50;7.70;99.90
10702;DHT22;5402;50.004;8.246;2023-02-03T03:56:21;7.70;99.90
10702;DHT22;5402;50.004;8.246;2023-02-03T03:58:51;7.70;99.90
10702;DHT22;5402;50.004;8.246;2023-02-03T04:01:19;7.70;99.90
10702;DHT22;5402;50.004;8.246;2023-02-03T04:03:51;7.70;99.90
10702;DHT22;5402;50.004;8.246;2023-02-03T04:06:19;7.70;99.90
10702;DHT22;5402;50.004;8.246;2023-02-03T04:08:46;7.70;99.90
10702;DHT22;5402;50.004;8.246;2023-02-03T04:11:13;7.70;99.90
10702;DHT22;5402;50.004;8.246;2023-02-03T04:14:00;7.80;99.90
10702;DHT22;5402;50.004;8.246;2023-02-03T04:16:27;7.80;99.90
10702;DHT22;5402;50.004;8.246;2023-02-03T04:18:55;7.80;99.90
10702;DHT22;5402;50.004;8.246;2023-02-03T04:21:22;7.80;99.90
10702;DHT22;5402;50.004;8.246;2023-02-03T04:23:49;7.80;99.90
10702;DHT22;5402;50.004;8.246;2023-02-03T04:26:16;7.80;99.90
10702;DHT22;5402;50.004;8.246;2023-02-03T04:28:43;7.90;99.90
10702;DHT22;5402;50.004;8.246;2023-02-03T04:31:10;7.90;99.90
10702;DHT22;5402;50.004;8.246;2023-02-03T04:33:37;7.90;99.90
10702;DHT22;5402;50.004;8.246;2023-02-03T04:36:05;7.90;99.90
10702;DHT22;5402;50.004;8.246;2023-02-03T04:38:32;7.90;99.90
10702;DHT22;5402;50.004;8.246;2023-02-03T04:40:59;7.80;99.90
10702;DHT22;5402;50.004;8.246;2023-02-03T04:43:26;7.80;99.90
10702;DHT22;5402;50.004;8.246;2023-02-03T04:45:52;7.80;99.90
10702;DHT22;5402;50.004;8.246;2023-02-03T04:48:20;7.80;99.90
10702;DHT22;5402;50.004;8.246;2023-02-03T04:50:46;7.80;99.90
10702;DHT22;5402;50.004;8.246;2023-02-03T04:53:14;7.80;99.90
10702;DHT22;5402;50.004;8.246;2023-02-03T04:55:45;7.80;99.90
10702;DHT22;5402;50.004;8.246;2023-02-03T04:58:12;7.80;99.90
10702;DHT22;5402;50.004;8.246;2023-02-03T05:00:38;7.80;99.90
10702;DHT22;5402;50.004;8.246;2023-02-03T05:03:05;7.80;99.90
10702;DHT22;5402;50.004;8.246;2023-02-03T05:05:32;7.80;99.90
10702;DHT22;5402;50.004;8.246;2023-02-03T05:07:59;7.70;99.90
10702;DHT22;5402;50.004;8.246;2023-02-03T05:10:27;7.80;99.90
10702;DHT22;5402;50.004;8.246;2023-02-03T05:12:53;7.70;99.90
10702;DHT22;5402;50.004;8.246;2023-02-03T05:15:20;7.70;99.90
10702;DHT22;5402;50.004;8.246;2023-02-03T05:17:47;7.70;99.90
10702;DHT22;5402;50.004;8.246;2023-02-03T05:20:14;7.70;99.90
10702;DHT22;5402;50.004;8.246;2023-02-03T05:22:40;7.70;99.90
10702;DHT22;5402;50.004;8.246;2023-02-03T05:25:08;7.70;99.90
10702;DHT22;5402;50.004;8.246;2023-02-03T05:27:36;7.70;99.90
10702;DHT22;5402;50.004;8.246;2023-02-03T05:30:04;7.70;99.90
10702;DHT22;5402;50.004;8.246;2023-02-03T05:32:31;7.70;99.90
10702;DHT22;5402;50.004;8.246;2023-02-03T05:34:57;7.70;99.90
10702;DHT22;5402;50.004;8.246;2023-02-03T05:37:24;7.70;99.90
10702;DHT22;5402;50.004;8.246;2023-02-03T05:39:51;7.70;99.90
10702;DHT22;5402;50.004;8.246;2023-02-03T05:42:18;7.70;99.90
10702;DHT22;5402;50.004;8.246;2023-02-03T05:44:45;7.70;99.90
10702;DHT22;5402;50.004;8.246;2023-02-03T05:47:11;7.70;99.90
10702;DHT22;5402;50.004;8.246;2023-02-03T05:49:38;7.70;99.90
10702;DHT22;5402;50.004;8.246;2023-02-03T05:52:05;7.70;99.90
10702;DHT22;5402;50.004;8.246;2023-02-03T05:54:32;7.80;99.90
10702;DHT22;5402;50.004;8.246;2023-02-03T05:56:58;7.80;99.90
10702;DHT22;5402;50.004;8.246;2023-02-03T05:59:25;7.80;99.90
10702;DHT22;5402;50.004;8.246;2023-02-03T06:01:53;7.80;99.90
10702;DHT22;5402;50.004;8.246;2023-02-03T06:04:20;7.80;99.90
10702;DHT22;5402;50.004;8.246;2023-02-03T06:06:47;7.80;99.90
10702;DHT22;5402;50.004;8.246;2023-02-03T06:09:13;7.80;99.90
10702;DHT22;5402;50.004;8.246;2023-02-03T06:11:40;7.80;99.90
10702;DHT22;5402;50.004;8.246;2023-02-03T06:14:08;7.80;99.90
10702;DHT22;5402;50.004;8.246;2023-02-03T06:16:35;7.80;99.90
10702;DHT22;5402;50.004;8.246;2023-02-03T06:19:03;7.80;99.90
10702;DHT22;5402;50.004;8.246;2023-02-03T06:21:29;7.80;99.90
10702;DHT22;5402;50.004;8.246;2023-02-03T06:23:56;7.70;99.90
10702;DHT22;5402;50.004;8.246;2023-02-03T06:26:23;7.80;99.90
10702;DHT22;5402;50.004;8.246;2023-02-03T06:28:50;7.80;99.90
10702;DHT22;5402;50.004;8.246;2023-02-03T06:31:17;7.80;99.90
10702;DHT22;5402;50.004;8.246;2023-02-03T06:33:43;7.80;99.90
10702;DHT22;5402;50.004;8.246;2023-02-03T06:36:12;7.80;99.90
10702;DHT22;5402;50.004;8.246;2023-02-03T06:38:38;7.80;99.90
10702;DHT22;5402;50.004;8.246;2023-02-03T06:41:05;7.80;99.90
10702;DHT22;5402;50.004;8.246;2023-02-03T06:43:32;7.80;99.90
10702;DHT22;5402;50.004;8.246;2023-02-03T06:46:00;7.80;99.90
10702;DHT22;5402;50.004;8.246;2023-02-03T06:48:26;7.80;99.90
10702;DHT22;5402;50.004;8.246;2023-02-03T06:50:53;7.80;99.90
10702;DHT22;5402;50.004;8.246;2023-02-03T06:53:21;7.80;99.90
10702;DHT22;5402;50.004;8.246;2023-02-03T06:55:48;7.80;99.90
10702;DHT22;5402;50.004;8.246;2023-02-03T06:58:16;7.80;99.90
10702;DHT22;5402;50.004;8.246;2023-02-03T07:00:43;7.80;99.90
10702;DHT22;5402;50.004;8.246;2023-02-03T07:03:11;7.80;99.90
10702;DHT22;5402;50.004;8.246;2023-02-03T07:05:38;7.80;99.90
10702;DHT22;5402;50.004;8.246;2023-02-03T07:08:05;7.80;99.90
10702;DHT22;5402;50.004;8.246;2023-02-03T07:10:33;7.80;99.90
10702;DHT22;5402;50.004;8.246;2023-02-03T07:13:03;7.90;99.90
10702;DHT22;5402;50.004;8.246;2023-02-03T07:15:30;7.90;99.90
10702;DHT22;5402;50.004;8.246;2023-02-03T07:17:57;7.90;99.90
10702;DHT22;5402;50.004;8.246;2023-02-03T07:20:24;7.90;99.90
10702;DHT22;5402;50.004;8.246;2023-02-03T07:22:52;7.90;99.90
10702;DHT22;5402;50.004;8.246;2023-02-03T07:25:19;7.90;99.90
10702;DHT22;5402;50.004;8.246;2023-02-03T07:27:47;8.00;99.90
10702;DHT22;5402;50.004;8.246;2023-02-03T07:30:16;8.00;99.90
10702;DHT22;5402;50.004;8.246;2023-02-03T07:32:46;8.00;99.90
10702;DHT22;5402;50.004;8.246;2023-02-03T07:35:12;8.00;99.90
10702;DHT22;5402;50.004;8.246;2023-02-03T07:37:40;8.00;99.90
10702;DHT22;5402;50.004;8.246;2023-02-03T07:40:07;8.10;99.90
10702;DHT22;5402;50.004;8.246;2023-02-03T07:42:34;8.10;99.90
10702;DHT22;5402;50.004;8.246;2023-02-03T07:45:03;8.10;99.90
10702;DHT22;5402;50.004;8.246;2023-02-03T07:47:30;8.20;99.90
10702;DHT22;5402;50.004;8.246;2023-02-03T07:49:57;8.20;99.90
10702;DHT22;5402;50.004;8.246;2023-02-03T07:52:24;8.20;99.90
10702;DHT22;5402;50.004;8.246;2023-02-03T07:54:50;8.20;99.90
10702;DHT22;5402;50.004;8.246;2023-02-03T07:57:17;8.20;99.90
10702;DHT22;5402;50.004;8.246;2023-02-03T07:59:44;8.30;99.90
10702;DHT22;5402;50.004;8.246;2023-02-03T08:02:12;8.30;99.90
10702;DHT22;5402;50.004;8.246;2023-02-03T08:04:39;8.30;99.90
10702;DHT22;5402;50.004;8.246;2023-02-03T08:07:05;8.40;99.90
10702;DHT22;5402;50.004;8.246;2023-02-03T08:09:32;8.40;99.90
10702;DHT22;5402;50.004;8.246;2023-02-03T08:11:59;8.40;99.90
10702;DHT22;5402;50.004;8.246;2023-02-03T08:14:25;8.40;99.90
10702;DHT22;5402;50.004;8.246;2023-02-03T08:16:52;8.60;99.90
10702;DHT22;5402;50.004;8.246;2023-02-03T08:19:20;8.60;99.90
10702;DHT22;5402;50.004;8.246;2023-02-03T08:21:47;8.50;99.90
10702;DHT22;5402;50.004;8.246;2023-02-03T08:24:13;8.70;99.90
10702;DHT22;5402;50.004;8.246;2023-02-03T08:26:40;8.70;99.90
10702;DHT22;5402;50.004;8.246;2023-02-03T08:29:07;8.70;99.90
10702;DHT22;5402;50.004;8.246;2023-02-03T08:31:35;8.80;99.90
10702;DHT22;5402;50.004;8.246;2023-02-03T08:34:01;8.80;99.90
10702;DHT22;5402;50.004;8.246;2023-02-03T08:36:31;8.90;99.90
10702;DHT22;5402;50.004;8.246;2023-02-03T08:38:58;8.90;99.90
10702;DHT22;5402;50.004;8.246;2023-02-03T08:41:24;8.90;99.90
10702;DHT22;5402;50.004;8.246;2023-02-03T08:43:51;9.00;99.90
10702;DHT22;5402;50.004;8.246;2023-02-03T08:46:18;9.00;99.90
10702;DHT22;5402;50.004;8.246;2023-02-03T08:48:45;9.00;99.90
10702;DHT22;5402;50.004;8.246;2023-02-03T08:51:13;9.00;99.90
10702;DHT22;5402;50.004;8.246;2023-02-03T08:53:42;9.00;99.90
10702;DHT22;5402;50.004;8.246;2023-02-03T08:56:10;9.10;99.90
10702;DHT22;5402;50.004;8.246;2023-02-03T08:58:37;9.10;99.90
10702;DHT22;5402;50.004;8.246;2023-02-03T09:01:06;9.10;99.90
10702;DHT22;5402;50.004;8.246;2023-02-03T09:03:33;9.10;99.90
10702;DHT22;5402;50.004;8.246;2023-02-03T09:05:59;9.20;99.90
10702;DHT22;5402;50.004;8.246;2023-02-03T09:08:28;9.20;99.90
10702;DHT22;5402;50.004;8.246;2023-02-03T09:10:56;9.20;99.90
10702;DHT22;5402;50.004;8.246;2023-02-03T09:13:23;9.20;99.90
10702;DHT22;5402;50.004;8.246;2023-02-03T09:15:50;9.20;99.90
10702;DHT22;5402;50.004;8.246;2023-02-03T09:18:17;9.20;99.90
10702;DHT22;5402;50.004;8.246;2023-02-03T09:20:44;9.30;99.90
10702;DHT22;5402;50.004;8.246;2023-02-03T09:23:11;9.30;99.90
10702;DHT22;5402;50.004;8.246;2023-02-03T09:25:38;9.30;99.90
10702;DHT22;5402;50.004;8.246;2023-02-03T09:28:06;9.30;99.90
10702;DHT22;5402;50.004;8.246;2023-02-03T09:30:32;9.30;99.90
10702;DHT22;5402;50.004;8.246;2023-02-03T09:32:59;9.30;99.90
10702;DHT22;5402;50.004;8.246;2023-02-03T09:35:26;9.30;99.90
10702;DHT22;5402;50.004;8.246;2023-02-03T09:37:54;9.30;99.90
10702;DHT22;5402;50.004;8.246;2023-02-03T09:40:24;9.30;99.90
10702;DHT22;5402;50.004;8.246;2023-02-03T09:43:08;9.40;99.90
10702;DHT22;5402;50.004;8.246;2023-02-03T09:45:37;9.40;99.90
10702;DHT22;5402;50.004;8.246;2023-02-03T09:48:10;9.40;99.90
10702;DHT22;5402;50.004;8.246;2023-02-03T09:50:39;9.50;99.90
10702;DHT22;5402;50.004;8.246;2023-02-03T09:53:15;9.50;99.90
10702;DHT22;5402;50.004;8.246;2023-02-03T09:55:44;9.60;99.90
10702;DHT22;5402;50.004;8.246;2023-02-03T09:58:14;9.70;99.90
10702;DHT22;5402;50.004;8.246;2023-02-03T10:00:44;9.70;99.90
10702;DHT22;5402;50.004;8.246;2023-02-03T10:03:17;9.70;99.90
10702;DHT22;5402;50.004;8.246;2023-02-03T10:05:57;9.80;99.90
10702;DHT22;5402;50.004;8.246;2023-02-03T10:11:20;9.70;99.90
10702;DHT22;5402;50.004;8.246;2023-02-03T10:13:58;9.80;99.90
10702;DHT22;5402;50.004;8.246;2023-02-03T10:16:40;9.80;99.90
10702;DHT22;5402;50.004;8.246;2023-02-03T10:19:16;9.80;99.90
10702;DHT22;5402;50.004;8.246;2023-02-03T10:21:48;9.90;99.90
10702;DHT22;5402;50.004;8.246;2023-02-03T10:24:21;9.90;99.90
10702;DHT22;5402;50.004;8.246;2023-02-03T10:26:51;9.90;99.90
10702;DHT22;5402;50.004;8.246;2023-02-03T10:29:28;9.90;99.90
10702;DHT22;5402;50.004;8.246;2023-02-03T10:31:57;10.00;99.90
10702;DHT22;5402;50.004;8.246;2023-02-03T10:34:24;10.00;99.90
10702;DHT22;5402;50.004;8.246;2023-02-03T10:36:55;10.10;99.90
10702;DHT22;5402;50.004;8.246;2023-02-03T10:39:28;10.00;99.90
10702;DHT22;5402;50.004;8.246;2023-02-03T10:41:56;10.10;99.90
10702;DHT22;5402;50.004;8.246;2023-02-03T10:44:34;10.00;99.90
10702;DHT22;5402;50.004;8.246;2023-02-03T10:47:01;10.00;99.90
10702;DHT22;5402;50.004;8.246;2023-02-03T10:49:35;9.90;99.90
10702;DHT22;5402;50.004;8.246;2023-02-03T10:52:02;9.90;99.90
10702;DHT22;5402;50.004;8.246;2023-02-03T10:54:31;9.90;99.90
10702;DHT22;5402;50.004;8.246;2023-02-03T10:57:02;9.90;99.90
10702;DHT22;5402;50.004;8.246;2023-02-03T10:59:34;9.90;99.90
10702;DHT22;5402;50.004;8.246;2023-02-03T11:02:07;9.70;99.90
10702;DHT22;5402;50.004;8.246;2023-02-03T11:04:35;9.80;99.90
10702;DHT22;5402;50.004;8.246;2023-02-03T11:07:04;9.80;99.90
10702;DHT22;5402;50.004;8.246;2023-02-03T11:09:34;9.80;99.90
10702;DHT22;5402;50.004;8.246;2023-02-03T11:12:12;9.80;99.90
10702;DHT22;5402;50.004;8.246;2023-02-03T11:14:42;9.70;99.90
10702;DHT22;5402;50.004;8.246;2023-02-03T11:17:15;9.70;99.90
10702;DHT22;5402;50.004;8.246;2023-02-03T11:19:43;9.70;99.90
10702;DHT22;5402;50.004;8.246;2023-02-03T11:22:12;9.70;99.90
10702;DHT22;5402;50.004;8.246;2023-02-03T11:24:40;9.80;99.90
10702;DHT22;5402;50.004;8.246;2023-02-03T11:27:11;9.80;99.90
10702;DHT22;5402;50.004;8.246;2023-02-03T11:29:43;9.80;99.90
10702;DHT22;5402;50.004;8.246;2023-02-03T11:32:17;9.90;99.90
10702;DHT22;5402;50.004;8.246;2023-02-03T11:34:56;10.00;99.90
10702;DHT22;5402;50.004;8.246;2023-02-03T11:37:26;9.90;99.90
10702;DHT22;5402;50.004;8.246;2023-02-03T11:39:55;9.80;99.90
10702;DHT22;5402;50.004;8.246;2023-02-03T11:42:23;9.90;99.90
10702;DHT22;5402;50.004;8.246;2023-02-03T11:44:55;9.90;99.90
10702;DHT22;5402;50.004;8.246;2023-02-03T11:47:44;9.90;99.90
10702;DHT22;5402;50.004;8.246;2023-02-03T11:50:24;9.90;99.90
10702;DHT22;5402;50.004;8.246;2023-02-03T11:53:00;9.80;99.90
10702;DHT22;5402;50.004;8.246;2023-02-03T11:55:44;9.80;99.90
10702;DHT22;5402;50.004;8.246;2023-02-03T11:58:26;9.60;99.90
10702;DHT22;5402;50.004;8.246;2023-02-03T12:01:04;9.60;99.90
10702;DHT22;5402;50.004;8.246;2023-02-03T12:03:43;9.50;99.90
10702;DHT22;5402;50.004;8.246;2023-02-03T12:06:24;9.50;99.90
10702;DHT22;5402;50.004;8.246;2023-02-03T12:09:06;9.50;99.90
10702;DHT22;5402;50.004;8.246;2023-02-03T12:11:51;9.50;99.90
10702;DHT22;5402;50.004;8.246;2023-02-03T12:14:29;9.50;99.90
10702;DHT22;5402;50.004;8.246;2023-02-03T12:17:20;9.50;99.90
10702;DHT22;5402;50.004;8.246;2023-02-03T12:20:02;9.50;99.90
10702;DHT22;5402;50.004;8.246;2023-02-03T12:22:35;9.50;99.90
10702;DHT22;5402;50.004;8.246;2023-02-03T12:25:21;9.50;99.90
10702;DHT22;5402;50.004;8.246;2023-02-03T12:27:57;9.50;99.90
10702;DHT22;5402;50.004;8.246;2023-02-03T12:30:28;9.50;99.90
10702;DHT22;5402;50.004;8.246;2023-02-03T12:33:00;9.60;99.90
10702;DHT22;5402;50.004;8.246;2023-02-03T12:35:32;9.50;99.90
10702;DHT22;5402;50.004;8.246;2023-02-03T12:38:05;9.60;99.90
10702;DHT22;5402;50.004;8.246;2023-02-03T12:40:39;9.50;99.90
10702;DHT22;5402;50.004;8.246;2023-02-03T12:43:18;9.60;99.90
10702;DHT22;5402;50.004;8.246;2023-02-03T12:45:51;9.50;99.90
10702;DHT22;5402;50.004;8.246;2023-02-03T12:48:23;9.50;99.90
10702;DHT22;5402;50.004;8.246;2023-02-03T12:50:55;9.50;99.90
10702;DHT22;5402;50.004;8.246;2023-02-03T12:53:27;9.50;99.90
10702;DHT22;5402;50.004;8.246;2023-02-03T12:56:00;9.50;99.90
10702;DHT22;5402;50.004;8.246;2023-02-03T12:58:31;9.50;99.90
10702;DHT22;5402;50.004;8.246;2023-02-03T13:01:03;9.50;99.90
10702;DHT22;5402;50.004;8.246;2023-02-03T13:03:38;9.50;99.90
10702;DHT22;5402;50.004;8.246;2023-02-03T13:06:10;9.50;99.90
10702;DHT22;5402;50.004;8.246;2023-02-03T13:08:42;9.50;99.90
10702;DHT22;5402;50.004;8.246;2023-02-03T13:11:17;9.50;99.90
10702;DHT22;5402;50.004;8.246;2023-02-03T13:13:47;9.50;99.90
10702;DHT22;5402;50.004;8.246;2023-02-03T13:16:20;9.50;99.90
10702;DHT22;5402;50.004;8.246;2023-02-03T13:18:53;9.60;99.90
10702;DHT22;5402;50.004;8.246;2023-02-03T13:21:21;9.60;99.90
10702;DHT22;5402;50.004;8.246;2023-02-03T13:23:48;9.50;99.90
10702;DHT22;5402;50.004;8.246;2023-02-03T13:26:48;9.60;99.90
10702;DHT22;5402;50.004;8.246;2023-02-03T13:29:47;9.60;99.90
10702;DHT22;5402;50.004;8.246;2023-02-03T13:32:27;9.70;99.90
10702;DHT22;5402;50.004;8.246;2023-02-03T13:35:18;9.70;99.90
10702;DHT22;5402;50.004;8.246;2023-02-03T13:38:05;9.70;99.90
10702;DHT22;5402;50.004;8.246;2023-02-03T13:40:44;9.70;99.90
10702;DHT22;5402;50.004;8.246;2023-02-03T13:43:16;9.70;99.90
10702;DHT22;5402;50.004;8.246;2023-02-03T13:45:47;9.70;99.90
10702;DHT22;5402;50.004;8.246;2023-02-03T13:48:17;9.70;99.90
10702;DHT22;5402;50.004;8.246;2023-02-03T13:50:49;9.70;99.90
10702;DHT22;5402;50.004;8.246;2023-02-03T13:53:18;9.70;99.90
10702;DHT22;5402;50.004;8.246;2023-02-03T13:55:52;9.70;99.90
10702;DHT22;5402;50.004;8.246;2023-02-03T13:58:21;9.60;99.90
10702;DHT22;5402;50.004;8.246;2023-02-03T14:01:06;9.60;99.90
10702;DHT22;5402;50.004;8.246;2023-02-03T14:03:50;9.60;99.90
10702;DHT22;5402;50.004;8.246;2023-02-03T14:09:45;9.50;99.90
10702;DHT22;5402;50.004;8.246;2023-02-03T14:12:22;9.40;99.90
10702;DHT22;5402;50.004;8.246;2023-02-03T14:14:59;9.40;99.90
10702;DHT22;5402;50.004;8.246;2023-02-03T14:20:52;9.20;99.90
10702;DHT22;5402;50.004;8.246;2023-02-03T14:23:39;9.20;99.90
10702;DHT22;5402;50.004;8.246;2023-02-03T14:26:21;9.20;99.90
10702;DHT22;5402;50.004;8.246;2023-02-03T14:28:49;9.20;99.90
10702;DHT22;5402;50.004;8.246;2023-02-03T14:31:21;9.10;99.90
10702;DHT22;5402;50.004;8.246;2023-02-03T14:34:08;9.10;99.90
10702;DHT22;5402;50.004;8.246;2023-02-03T14:36:45;9.10;99.90
10702;DHT22;5402;50.004;8.246;2023-02-03T14:39:45;9.10;99.90
10702;DHT22;5402;50.004;8.246;2023-02-03T14:42:38;9.10;99.90
10702;DHT22;5402;50.004;8.246;2023-02-03T14:45:19;9.10;99.90
10702;DHT22;5402;50.004;8.246;2023-02-03T14:47:59;9.10;99.90
10702;DHT22;5402;50.004;8.246;2023-02-03T14:50:37;9.20;99.90
10702;DHT22;5402;50.004;8.246;2023-02-03T14:53:20;9.20;99.90
10702;DHT22;5402;50.004;8.246;2023-02-03T14:55:58;9.20;99.90
10702;DHT22;5402;50.004;8.246;2023-02-03T14:58:34;9.20;99.90
10702;DHT22;5402;50.004;8.246;2023-02-03T15:01:03;9.20;99.90
10702;DHT22;5402;50.004;8.246;2023-02-03T15:03:30;9.20;99.90
10702;DHT22;5402;50.004;8.246;2023-02-03T15:05:59;9.20;99.90
10702;DHT22;5402;50.004;8.246;2023-02-03T15:08:33;9.30;99.90
10702;DHT22;5402;50.004;8.246;2023-02-03T15:11:14;9.30;99.90
10702;DHT22;5402;50.004;8.246;2023-02-03T15:13:42;9.30;99.90
10702;DHT22;5402;50.004;8.246;2023-02-03T15:16:13;9.40;99.90
10702;DHT22;5402;50.004;8.246;2023-02-03T15:18:42;9.40;99.90
10702;DHT22;5402;50.004;8.246;2023-02-03T15:21:16;9.40;99.90
10702;DHT22;5402;50.004;8.246;2023-02-03T15:23:44;9.40;99.90
10702;DHT22;5402;50.004;8.246;2023-02-03T15:26:13;9.40;99.90
10702;DHT22;5402;50.004;8.246;2023-02-03T15:28:40;9.40;99.90
10702;DHT22;5402;50.004;8.246;2023-02-03T15:31:14;9.40;99.90
10702;DHT22;5402;50.004;8.246;2023-02-03T15:33:43;9.40;99.90
10702;DHT22;5402;50.004;8.246;2023-02-03T15:36:16;9.40;99.90
10702;DHT22;5402;50.004;8.246;2023-02-03T15:38:47;9.50;99.90
10702;DHT22;5402;50.004;8.246;2023-02-03T15:41:19;9.50;99.90
10702;DHT22;5402;50.004;8.246;2023-02-03T15:43:48;9.50;99.90
10702;DHT22;5402;50.004;8.246;2023-02-03T15:46:22;9.50;99.90
10702;DHT22;5402;50.004;8.246;2023-02-03T15:48:57;9.50;99.90
10702;DHT22;5402;50.004;8.246;2023-02-03T15:51:31;9.60;99.90
10702;DHT22;5402;50.004;8.246;2023-02-03T15:54:05;9.50;99.90
10702;DHT22;5402;50.004;8.246;2023-02-03T15:56:39;9.50;99.90
10702;DHT22;5402;50.004;8.246;2023-02-03T15:59:18;9.60;99.90
10702;DHT22;5402;50.004;8.246;2023-02-03T16:01:47;9.60;99.90
10702;DHT22;5402;50.004;8.246;2023-02-03T16:04:14;9.60;99.90
10702;DHT22;5402;50.004;8.246;2023-02-03T16:06:44;9.60;99.90
10702;DHT22;5402;50.004;8.246;2023-02-03T16:09:26;9.60;99.90
10702;DHT22;5402;50.004;8.246;2023-02-03T16:14:47;9.50;99.90
10702;DHT22;5402;50.004;8.246;2023-02-03T16:17:27;9.50;99.90
10702;DHT22;5402;50.004;8.246;2023-02-03T16:20:23;9.50;99.90
10702;DHT22;5402;50.004;8.246;2023-02-03T16:23:17;9.50;99.90
10702;DHT22;5402;50.004;8.246;2023-02-03T16:29:04;9.50;99.90
10702;DHT22;5402;50.004;8.246;2023-02-03T16:31:53;9.50;99.90
10702;DHT22;5402;50.004;8.246;2023-02-03T16:34:42;9.50;99.90
10702;DHT22;5402;50.004;8.246;2023-02-03T16:37:29;9.50;99.90
10702;DHT22;5402;50.004;8.246;2023-02-03T16:40:16;9.60;99.90
10702;DHT22;5402;50.004;8.246;2023-02-03T16:43:01;9.50;99.90
10702;DHT22;5402;50.004;8.246;2023-02-03T16:45:52;9.50;99.90